Accueil
Images satellite Prévisions 15 joursClimatMétéo marine Cyclones Foudre AéroportsFAQ Actualités A propos
Météo : Europe Afrique Amérique du Nord Amérique du Sud Asie Australie-Océanie Autres
Langues Contact

Coxyde, Belgique

latitude: 51-05N, longitude: 002-39E, altitude: 4 m


METAR: EBFN 191955Z 28017KT 9999 FEW041 08/03 Q1021 BLU
TAF: EBFN 191541Z 1919/2007 28015KT 9999 FEW020 SCT250 TEMPO 2000/2007 25017G27KT SCT025 BKN110

Heure: 21:11 (20:11 UTC)

Observation

Le bulletin a été fait il y a 16 minutes, à 19:55 UTC
Vent 17 kt de ouest
Température 8°C
Humidité 71%
Pression 1021 hPa
Visibilité 10 km ou plus
Quelques nuages à une hauteur de 4100 ft

Changer d'unités

Prévision

Le bulletin a été fait il y a 4 heures et 30 minutes, à 15:41 UTC
Prévision valable du 19 à 19 UTC au 20 à 07 UTC
Vent 15 kt de ouest
Visibilité 10 km ou plus
Quelques nuages à une hauteur de 2000 ft
Nuages épars à une hauteur de 25000 ft
Temporairement
du 20 à 00 UTC au 20 à 07 UTC
Vent 17 kt de ouest/sud-ouest avec des rafales jusqu'à 27 kt
Nuages épars à une hauteur de 2500 ft
Nuages fragmentés à une hauteur de 11000 ft
Les informations qui figurent sur ce site font l'objet d'une clause de non-responsabilité
Météo : Europe Afrique Amérique du Nord Amérique du Sud Asie Australie-Océanie Autres
Images satellite Prévisions 15 joursClimatMétéo marine Cyclones Foudre AéroportsFAQ Langues Contact Actualités A propos